Cadillac, Michigan
Current Conditions -  °F | °C
As of 10:35 AM on Wednesday 26 Nov 2014 (Local Time) from KCAD Reporting Station
Overcast Overcast  
Wind Chill: 19°   Ceiling: 2200
Heat Index: 25°   Visibility: 10mi
Dew Point: 22°   Wind: 5mph
Humidity: 88%   Direction: 110°ESE
Pressure: 30.13"   Gusts: NA
Location:  44.26°N, 85.4°W
Report Text: KCAD 261535Z AUTO 11004KT 10SM OVC022 M03/M05 A3013 RMK AO2 T10401057
Loading
Personal Weather Stations






























Interactive Weather Map New forecast layout! Learn more

10-Day Weather Forecast

Advertisements
Track Severe Weather on mobile